Time;durP1;ratioP1;P1;durP2;ratioP2;P2;SDS_P1;SDS_P2;PMS_P1;PMS_P2;Temp;Humidity;BMP_temperature;BMP_pressure;BME280_temperature;BME280_humidity;BME280_pressure;Samples;Min_cycle;Max_cycle;Signal;HPM_P1;HPM_P2
2022/04/09 00:00:43;;;;;;;6.17;1.77;;;4.20;99.90;;;;;;5041620;28;20033;-81
2022/04/09 00:03:09;;;;;;;10.47;2.13;;;4.20;99.90;;;;;;5022141;28;20119;-80
2022/04/09 00:05:35;;;;;;;6.83;1.67;;;4.30;99.90;;;;;;5010048;28;20053;-80
2022/04/09 00:08:01;;;;;;;7.27;2.10;;;4.30;99.90;;;;;;5036399;28;20048;-81
2022/04/09 00:10:27;;;;;;;6.13;1.70;;;4.20;99.90;;;;;;5057050;28;20496;-80
2022/04/09 00:12:53;;;;;;;7.50;1.70;;;4.30;99.90;;;;;;5045811;28;20045;-80
2022/04/09 00:15:18;;;;;;;5.03;1.50;;;4.30;99.90;;;;;;5023620;28;20045;-81
2022/04/09 00:17:46;;;;;;;6.00;1.90;;;4.40;99.90;;;;;;5030959;28;20049;-80
2022/04/09 00:20:14;;;;;;;5.70;2.13;;;4.40;99.90;;;;;;5037794;28;20037;-81
2022/04/09 00:22:40;;;;;;;9.20;1.97;;;4.40;99.90;;;;;;5040398;28;20045;-81
2022/04/09 00:25:09;;;;;;;10.63;2.00;;;4.40;99.90;;;;;;5038326;28;20064;-81
2022/04/09 00:27:35;;;;;;;7.30;2.20;;;4.50;99.90;;;;;;5039736;28;20112;-81
2022/04/09 00:30:05;;;;;;;11.00;2.13;;;4.40;99.90;;;;;;5036427;28;20041;-80
2022/04/09 00:32:31;;;;;;;9.63;2.27;;;4.40;99.90;;;;;;5056512;28;20056;-80
2022/04/09 00:34:57;;;;;;;6.30;2.27;;;4.40;99.90;;;;;;5066769;28;20053;-80
2022/04/09 00:37:22;;;;;;;8.53;2.03;;;4.40;99.90;;;;;;5035829;28;20164;-80
2022/04/09 00:39:48;;;;;;;7.10;1.87;;;4.40;99.90;;;;;;5002319;28;20495;-81
2022/04/09 00:42:18;;;;;;;4.77;1.90;;;4.30;99.90;;;;;;5034140;28;20038;-81
2022/04/09 00:44:44;;;;;;;8.10;2.07;;;4.30;99.90;;;;;;5022548;28;20103;-79
2022/04/09 00:47:11;;;;;;;9.80;2.50;;;4.30;99.90;;;;;;5039326;28;20416;-81
2022/04/09 00:49:38;;;;;;;9.07;2.43;;;4.30;99.90;;;;;;5042705;28;20049;-81
2022/04/09 00:52:05;;;;;;;7.63;2.50;;;4.30;99.90;;;;;;5043720;28;20067;-81
2022/04/09 00:54:32;;;;;;;9.30;2.00;;;4.20;99.90;;;;;;5037874;28;20048;-80
2022/04/09 00:57:05;;;;;;;4.97;2.23;;;4.20;99.90;;;;;;5040168;28;20102;-81
2022/04/09 00:59:33;;;;;;;6.00;1.77;;;4.20;99.90;;;;;;5042565;28;20052;-81
2022/04/09 01:01:59;;;;;;;8.83;1.93;;;4.20;99.90;;;;;;5059972;28;20051;-81
2022/04/09 01:04:25;;;;;;;6.53;1.67;;;4.20;99.90;;;;;;5026070;28;20509;-81
2022/04/09 01:06:52;;;;;;;8.47;1.80;;;4.20;99.90;;;;;;5026172;28;20068;-81
2022/04/09 01:09:18;;;;;;;8.23;1.87;;;4.20;99.90;;;;;;5059767;28;20041;-81
2022/04/09 01:11:44;;;;;;;9.90;1.93;;;4.20;99.90;;;;;;5022422;28;20049;-80
2022/04/09 01:14:12;;;;;;;4.10;1.73;;;4.30;99.90;;;;;;5036316;28;20487;-81
2022/04/09 01:16:38;;;;;;;5.10;1.77;;;4.30;99.90;;;;;;5058820;28;20557;-81
2022/04/09 01:19:04;;;;;;;6.07;1.67;;;4.30;99.90;;;;;;5012905;28;20053;-81
2022/04/09 01:21:29;;;;;;;6.67;1.87;;;4.30;99.90;;;;;;5022944;28;20044;-81
2022/04/09 01:23:55;;;;;;;3.30;1.63;;;4.30;99.90;;;;;;5022252;28;20047;-81
2022/04/09 01:26:22;;;;;;;7.20;1.87;;;4.30;99.90;;;;;;5026753;28;20040;-81
2022/04/09 01:28:49;;;;;;;5.47;1.33;;;4.30;99.90;;;;;;5023469;28;20148;-81
2022/04/09 01:31:16;;;;;;;6.50;1.60;;;4.30;99.90;;;;;;5041885;28;20052;-81
2022/04/09 01:33:42;;;;;;;2.33;1.33;;;4.20;99.90;;;;;;5022430;28;20047;-81
2022/04/09 01:36:08;;;;;;;3.93;2.10;;;4.20;99.90;;;;;;5062091;28;20041;-81
2022/04/09 01:38:35;;;;;;;4.60;1.40;;;4.10;99.90;;;;;;5032953;28;20113;-81
2022/04/09 01:41:02;;;;;;;4.97;1.30;;;4.10;99.90;;;;;;5033672;28;20040;-80
2022/04/09 01:43:28;;;;;;;3.37;1.30;;;4.10;99.90;;;;;;5013536;28;20119;-82
2022/04/09 01:45:53;;;;;;;5.30;1.30;;;4.00;99.90;;;;;;5045719;28;20047;-80
2022/04/09 01:48:19;;;;;;;4.67;1.70;;;4.00;99.90;;;;;;5025242;28;20057;-80
2022/04/09 01:50:46;;;;;;;4.13;1.20;;;3.90;99.90;;;;;;5025905;28;20057;-80
2022/04/09 01:53:11;;;;;;;5.33;1.27;;;4.00;99.90;;;;;;5076341;28;20081;-80
2022/04/09 01:55:37;;;;;;;3.27;1.23;;;3.90;99.90;;;;;;5042273;28;20562;-80
2022/04/09 01:58:03;;;;;;;4.20;1.70;;;3.90;99.90;;;;;;5042455;28;20037;-80
2022/04/09 02:00:29;;;;;;;4.77;1.47;;;3.90;99.90;;;;;;5039889;28;20034;-80
2022/04/09 02:02:55;;;;;;;3.30;1.50;;;3.90;99.90;;;;;;5039028;28;20052;-80
2022/04/09 02:05:21;;;;;;;2.83;1.50;;;3.80;99.90;;;;;;5059994;28;20088;-81
2022/04/09 02:07:47;;;;;;;4.87;1.50;;;3.80;99.90;;;;;;5069080;28;20037;-81
2022/04/09 02:10:14;;;;;;;7.53;1.90;;;3.80;99.90;;;;;;5043197;28;20057;-80
2022/04/09 02:12:40;;;;;;;6.17;2.40;;;3.70;99.90;;;;;;5059946;28;20049;-80
2022/04/09 02:15:09;;;;;;;4.93;1.73;;;3.70;99.90;;;;;;5039206;28;20131;-81
2022/04/09 02:17:36;;;;;;;5.47;1.80;;;3.70;99.90;;;;;;5020807;28;20045;-81
2022/04/09 02:20:03;;;;;;;4.23;1.80;;;3.70;99.90;;;;;;5058258;28;20055;-80
2022/04/09 02:22:41;;;;;;;7.93;1.63;;;3.70;99.90;;;;;;5042971;28;20504;-80
2022/04/09 02:25:09;;;;;;;5.20;1.60;;;3.70;99.90;;;;;;5041575;28;20061;-79
2022/04/09 02:27:35;;;;;;;7.17;2.07;;;3.60;99.90;;;;;;5025592;28;20078;-80
2022/04/09 02:30:02;;;;;;;3.60;1.70;;;3.60;99.90;;;;;;5038749;28;20049;-81
2022/04/09 02:32:28;;;;;;;3.93;1.80;;;3.60;99.90;;;;;;5041476;28;20082;-81
2022/04/09 02:34:55;;;;;;;6.23;1.40;;;3.60;99.90;;;;;;5042048;28;20084;-81
2022/04/09 02:37:21;;;;;;;8.43;1.70;;;3.70;99.90;;;;;;5023412;28;20033;-80
2022/04/09 02:39:47;;;;;;;4.90;1.50;;;3.60;99.90;;;;;;5026178;28;20087;-81
2022/04/09 02:42:13;;;;;;;4.77;1.80;;;3.70;99.90;;;;;;5041449;28;20116;-80
2022/04/09 02:44:39;;;;;;;9.70;2.00;;;3.70;99.90;;;;;;5042490;28;20052;-80
2022/04/09 02:47:06;;;;;;;3.40;1.53;;;3.70;99.90;;;;;;5039474;28;20098;-81
2022/04/09 02:49:31;;;;;;;4.93;1.73;;;3.70;99.90;;;;;;5025040;28;20527;-81
2022/04/09 02:51:57;;;;;;;7.10;1.63;;;3.80;99.90;;;;;;5026056;28;20049;-81
2022/04/09 02:54:23;;;;;;;6.40;1.83;;;3.80;99.90;;;;;;5057285;28;20048;-81
2022/04/09 02:56:49;;;;;;;7.33;1.43;;;3.70;99.90;;;;;;5026095;28;20056;-81
2022/04/09 02:59:15;;;;;;;6.20;1.70;;;3.70;99.90;;;;;;5041007;28;20044;-81
2022/04/09 03:01:46;;;;;;;8.17;1.80;;;3.70;99.90;;;;;;5040283;28;20045;-82
2022/04/09 03:04:12;;;;;;;4.88;1.65;;;3.70;99.90;;;;;;5057169;28;20037;-82
2022/04/09 03:06:38;;;;;;;3.93;1.60;;;3.70;99.90;;;;;;5024983;28;20041;-81
2022/04/09 03:09:05;;;;;;;8.30;1.83;;;3.60;99.90;;;;;;5025089;28;20040;-81
2022/04/09 03:11:31;;;;;;;6.73;2.00;;;3.60;99.90;;;;;;5023935;28;20052;-81
2022/04/09 03:13:57;;;;;;;6.30;2.10;;;3.60;99.90;;;;;;5025301;28;20053;-82
2022/04/09 03:16:23;;;;;;;5.93;1.87;;;3.60;99.90;;;;;;5021094;28;20075;-81
2022/04/09 03:18:48;;;;;;;8.23;1.90;;;3.50;99.90;;;;;;5033256;28;20053;-81
2022/04/09 03:21:14;;;;;;;6.93;2.40;;;3.50;99.90;;;;;;5021206;28;20042;-80
2022/04/09 03:23:40;;;;;;;7.03;1.73;;;3.50;99.90;;;;;;5013944;28;20045;-81
2022/04/09 03:26:06;;;;;;;7.03;1.77;;;3.50;99.90;;;;;;5056995;28;20047;-81
2022/04/09 03:28:32;;;;;;;8.50;1.83;;;3.50;99.90;;;;;;5044968;28;20041;-81
2022/04/09 03:30:58;;;;;;;6.57;1.87;;;3.40;99.90;;;;;;5034416;28;20041;-81
2022/04/09 03:33:25;;;;;;;6.70;1.60;;;3.40;99.90;;;;;;5040010;28;20041;-81
2022/04/09 03:35:51;;;;;;;7.13;1.80;;;3.40;99.90;;;;;;5021712;28;20068;-80
2022/04/09 03:38:17;;;;;;;8.93;1.93;;;3.40;99.90;;;;;;5019653;28;20053;-80
2022/04/09 03:40:43;;;;;;;8.13;1.80;;;3.40;99.90;;;;;;5012262;28;20128;-80
2022/04/09 03:43:10;;;;;;;9.53;1.80;;;3.40;99.90;;;;;;5037798;28;20052;-80
2022/04/09 03:45:35;;;;;;;8.77;1.77;;;3.40;99.90;;;;;;5056364;28;20033;-80
2022/04/09 03:48:02;;;;;;;15.17;1.47;;;3.40;99.90;;;;;;5023931;28;20204;-81
2022/04/09 03:50:28;;;;;;;5.67;1.47;;;3.50;99.90;;;;;;5023977;28;20056;-79
2022/04/09 03:52:54;;;;;;;6.67;1.70;;;3.50;99.90;;;;;;5056390;28;20064;-80
2022/04/09 03:55:20;;;;;;;5.97;1.57;;;3.50;99.90;;;;;;5036850;28;20052;-80
2022/04/09 03:57:46;;;;;;;4.80;1.50;;;3.50;99.90;;;;;;5029111;28;20045;-80
2022/04/09 04:00:14;;;;;;;4.87;1.57;;;3.50;99.90;;;;;;5023823;28;20041;-78
2022/04/09 04:02:40;;;;;;;9.67;1.57;;;3.50;99.90;;;;;;4997772;28;20087;-80
2022/04/09 04:05:07;;;;;;;6.33;1.47;;;3.50;99.90;;;;;;5039593;28;20069;-81
2022/04/09 04:07:33;;;;;;;10.10;2.17;;;3.50;99.90;;;;;;5039860;28;20045;-81
2022/04/09 04:10:04;;;;;;;5.27;1.70;;;3.50;99.90;;;;;;5056765;28;20052;-81
2022/04/09 04:12:30;;;;;;;4.47;1.23;;;3.50;99.90;;;;;;5040060;28;20535;-80
2022/04/09 04:14:57;;;;;;;8.87;1.70;;;3.50;99.90;;;;;;5023811;28;20041;-80
2022/04/09 04:17:23;;;;;;;6.90;1.80;;;3.50;99.90;;;;;;5040766;28;20061;-80
2022/04/09 04:19:49;;;;;;;6.43;1.67;;;3.50;99.90;;;;;;5040290;28;20136;-80
2022/04/09 04:22:14;;;;;;;4.53;1.37;;;3.50;99.90;;;;;;5023893;28;20045;-80
2022/04/09 04:24:40;;;;;;;6.23;1.67;;;3.50;99.90;;;;;;5023313;28;20451;-80
2022/04/09 04:27:06;;;;;;;4.27;1.30;;;3.50;99.90;;;;;;5057468;28;20048;-80
2022/04/09 04:29:33;;;;;;;4.47;1.50;;;3.50;99.90;;;;;;5039759;28;20045;-80
2022/04/09 04:31:59;;;;;;;7.20;1.50;;;3.40;99.90;;;;;;5040407;28;20079;-81
2022/04/09 04:34:24;;;;;;;4.57;1.40;;;3.40;99.90;;;;;;5039985;28;20079;-81
2022/04/09 04:36:50;;;;;;;8.23;1.53;;;3.40;99.90;;;;;;5057393;28;20037;-80
2022/04/09 04:39:16;;;;;;;6.77;1.47;;;3.40;99.90;;;;;;5020945;28;20105;-80
2022/04/09 04:41:42;;;;;;;4.40;1.13;;;3.40;99.90;;;;;;5036944;28;20051;-80
2022/04/09 04:44:09;;;;;;;7.87;1.27;;;3.40;99.90;;;;;;5038781;28;20072;-81
2022/04/09 04:46:36;;;;;;;7.63;1.70;;;3.40;99.90;;;;;;5022738;28;20123;-81
2022/04/09 04:49:03;;;;;;;6.30;1.20;;;3.40;99.90;;;;;;5019396;28;20088;-81
2022/04/09 04:51:29;;;;;;;3.13;1.10;;;3.50;99.90;;;;;;5033794;28;20056;-81
2022/04/09 04:53:55;;;;;;;3.23;1.07;;;3.50;99.90;;;;;;5019619;28;20048;-81
2022/04/09 04:56:23;;;;;;;3.00;1.00;;;3.50;99.90;;;;;;5037334;28;20365;-81
2022/04/09 04:58:50;;;;;;;3.90;1.17;;;3.50;99.90;;;;;;5024032;28;20060;-81
2022/04/09 05:01:15;;;;;;;7.97;1.30;;;3.50;99.90;;;;;;5023952;28;20040;-82
2022/04/09 05:03:41;;;;;;;3.80;1.30;;;3.40;99.90;;;;;;5037471;28;20110;-80
2022/04/09 05:06:07;;;;;;;4.47;1.30;;;3.50;99.90;;;;;;5033208;28;20060;-81
2022/04/09 05:08:33;;;;;;;6.33;1.20;;;3.50;99.90;;;;;;5033842;28;20045;-81
2022/04/09 05:10:59;;;;;;;6.70;1.20;;;3.50;99.90;;;;;;5030539;28;20040;-81
2022/04/09 05:13:25;;;;;;;7.30;1.33;;;3.50;99.90;;;;;;5016617;28;20520;-81
2022/04/09 05:15:50;;;;;;;5.10;1.60;;;3.60;99.90;;;;;;5013504;28;20485;-82
2022/04/09 05:18:16;;;;;;;8.03;1.50;;;3.60;99.90;;;;;;5032301;28;20040;-81
2022/04/09 05:20:42;;;;;;;4.13;1.40;;;3.60;99.90;;;;;;5017943;28;20049;-81
2022/04/09 05:23:08;;;;;;;4.00;1.53;;;3.70;99.90;;;;;;5016435;28;20633;-82
2022/04/09 05:25:34;;;;;;;4.77;1.30;;;3.70;99.90;;;;;;4998550;28;20053;-81
2022/04/09 05:28:08;;;;;;;4.50;1.30;;;3.80;99.90;;;;;;5013095;28;20519;-81
2022/04/09 05:30:34;;;;;;;6.43;1.63;;;3.80;99.90;;;;;;5033554;28;20059;-81
2022/04/09 05:33:00;;;;;;;10.47;1.50;;;3.90;99.90;;;;;;5032193;28;20049;-81
2022/04/09 05:35:26;;;;;;;8.67;1.50;;;3.90;99.90;;;;;;5032214;28;20049;-82
2022/04/09 05:37:52;;;;;;;6.73;1.80;;;3.90;99.90;;;;;;5042466;28;20051;-80
2022/04/09 05:40:18;;;;;;;5.83;1.97;;;4.00;99.90;;;;;;5018569;28;20041;-82
2022/04/09 05:42:45;;;;;;;5.90;1.33;;;4.00;99.90;;;;;;5021929;28;20045;-79
2022/04/09 05:45:11;;;;;;;6.47;2.00;;;4.10;99.90;;;;;;5022325;28;20044;-78
2022/04/09 05:47:41;;;;;;;6.13;1.70;;;4.10;99.90;;;;;;5040083;28;20072;-79
2022/04/09 05:50:09;;;;;;;7.90;1.53;;;4.20;99.90;;;;;;5030400;28;20060;-74
2022/04/09 05:52:35;;;;;;;4.40;1.40;;;4.20;99.90;;;;;;5053008;28;20480;-79
2022/04/09 05:55:03;;;;;;;7.83;2.03;;;4.20;99.90;;;;;;5015556;28;20045;-79
2022/04/09 05:57:30;;;;;;;7.03;1.57;;;4.20;99.90;;;;;;5031817;28;20049;-78
2022/04/09 05:59:55;;;;;;;7.17;1.60;;;4.30;99.90;;;;;;5055646;28;20044;-80
2022/04/09 06:02:21;;;;;;;5.50;1.50;;;4.40;99.90;;;;;;5055553;28;20037;-80
2022/04/09 06:04:47;;;;;;;6.07;1.60;;;4.40;99.90;;;;;;5021485;28;20045;-80
2022/04/09 06:07:13;;;;;;;5.93;1.70;;;4.40;99.90;;;;;;5017522;28;20139;-87
2022/04/09 06:09:41;;;;;;;5.40;1.60;;;4.50;99.90;;;;;;5014537;28;20045;-83
2022/04/09 06:12:12;;;;;;;9.00;2.53;;;4.60;99.90;;;;;;5013240;28;20059;-84
2022/04/09 06:14:38;;;;;;;7.73;1.70;;;4.70;99.90;;;;;;5031642;28;20076;-90
2022/04/09 06:17:04;;;;;;;7.93;1.87;;;4.80;99.90;;;;;;5017946;28;20091;-81
2022/04/09 06:19:31;;;;;;;11.60;2.00;;;4.90;99.90;;;;;;5048404;28;20059;-83
2022/04/09 06:21:57;;;;;;;10.40;1.90;;;5.00;99.90;;;;;;5047418;28;20060;-82
2022/04/09 06:24:23;;;;;;;9.13;1.70;;;5.10;99.90;;;;;;5056729;28;20037;-82
2022/04/09 06:26:49;;;;;;;7.37;1.53;;;5.10;99.90;;;;;;5056131;28;20084;-81
2022/04/09 06:29:14;;;;;;;7.70;1.70;;;5.00;99.90;;;;;;5023619;28;20152;-81
2022/04/09 06:31:40;;;;;;;6.73;1.73;;;4.90;99.90;;;;;;5047192;28;20123;-82
2022/04/09 06:34:06;;;;;;;10.10;1.80;;;4.90;99.90;;;;;;5052078;28;20601;-82
2022/04/09 06:36:32;;;;;;;10.10;2.20;;;4.90;99.90;;;;;;5035795;28;20175;-83
2022/04/09 06:38:58;;;;;;;9.40;1.60;;;4.90;99.90;;;;;;5040591;28;20045;-81
2022/04/09 06:41:24;;;;;;;5.57;1.50;;;4.90;99.90;;;;;;5050478;28;20049;-81
2022/04/09 06:43:50;;;;;;;5.67;1.87;;;5.00;99.90;;;;;;5022924;28;20068;-82
2022/04/09 06:46:16;;;;;;;5.33;1.63;;;5.10;99.90;;;;;;5021919;28;20037;-82
2022/04/09 06:48:42;;;;;;;8.70;1.70;;;5.10;99.90;;;;;;5022486;28;20057;-82
2022/04/09 06:51:08;;;;;;;10.40;1.70;;;5.20;99.90;;;;;;5051559;28;20059;-82
2022/04/09 06:53:34;;;;;;;7.50;1.63;;;5.40;99.90;;;;;;5054381;28;20120;-82
2022/04/09 06:56:00;;;;;;;7.77;1.83;;;5.50;99.90;;;;;;5032567;28;20490;-82
2022/04/09 06:58:26;;;;;;;7.93;1.60;;;5.60;99.90;;;;;;5037212;28;20076;-81
2022/04/09 07:00:51;;;;;;;9.33;1.60;;;5.80;99.90;;;;;;5038613;28;20041;-82
2022/04/09 07:03:17;;;;;;;7.37;1.70;;;5.90;99.90;;;;;;5037388;28;20088;-81
2022/04/09 07:05:43;;;;;;;4.13;1.50;;;6.10;99.90;;;;;;5003063;28;20049;-81
2022/04/09 07:08:09;;;;;;;6.43;1.30;;;6.20;99.90;;;;;;5020955;28;20072;-81
2022/04/09 07:10:38;;;;;;;8.10;1.60;;;6.30;99.90;;;;;;5037209;28;20614;-81
2022/04/09 07:13:07;;;;;;;10.53;1.60;;;6.40;99.90;;;;;;5019203;28;20068;-81
2022/04/09 07:15:34;;;;;;;19.20;2.67;;;6.40;99.90;;;;;;5019880;28;20484;-83
2022/04/09 07:18:00;;;;;;;10.50;2.20;;;6.50;99.90;;;;;;5038465;28;20215;-81
2022/04/09 07:20:26;;;;;;;5.67;1.50;;;6.50;99.90;;;;;;5037077;28;20128;-82
2022/04/09 07:22:52;;;;;;;5.50;1.50;;;6.50;99.90;;;;;;5038685;28;20096;-82
2022/04/09 07:25:17;;;;;;;6.63;1.33;;;6.60;99.90;;;;;;5019225;28;20047;-83
2022/04/09 07:27:44;;;;;;;8.60;1.83;;;6.60;99.90;;;;;;5037208;28;20060;-84
2022/04/09 07:30:21;;;;;;;7.87;1.60;;;6.70;99.90;;;;;;5032590;28;20052;-81
2022/04/09 07:32:48;;;;;;;8.90;1.80;;;6.80;99.90;;;;;;5037356;28;20040;-83
2022/04/09 07:35:14;;;;;;;4.27;1.60;;;6.90;99.90;;;;;;5038639;28;20081;-84
2022/04/09 07:37:50;;;;;;;6.47;1.77;;;7.00;99.90;;;;;;5037459;28;20560;-84
2022/04/09 07:40:17;;;;;;;7.80;1.97;;;7.00;99.90;;;;;;5054901;28;20045;-84
2022/04/09 07:42:45;;;;;;;7.60;1.70;;;7.10;99.90;;;;;;5038967;28;20075;-84
2022/04/09 07:45:12;;;;;;;9.43;1.90;;;7.20;99.90;;;;;;5037755;28;20042;-84
2022/04/09 07:47:39;;;;;;;7.53;1.70;;;7.30;99.90;;;;;;5040509;28;20057;-84
2022/04/09 07:50:07;;;;;;;13.97;2.30;;;7.40;99.90;;;;;;5027330;28;20098;-82
2022/04/09 07:52:33;;;;;;;5.23;1.43;;;7.50;99.90;;;;;;5076406;28;20514;-83
2022/04/09 07:54:59;;;;;;;6.13;1.63;;;7.60;99.90;;;;;;5024782;28;20044;-85
2022/04/09 07:57:25;;;;;;;8.43;1.90;;;7.60;99.90;;;;;;5041111;28;20041;-85
2022/04/09 07:59:58;;;;;;;8.33;1.40;;;7.60;99.90;;;;;;5022773;28;20044;-85
2022/04/09 08:02:24;;;;;;;;;;;7.80;99.90;;;;;;5055804;28;20538;-85
2022/04/09 08:04:50;;;;;;;7.03;1.60;;;7.80;99.90;;;;;;5031789;28;19924;-86
2022/04/09 08:07:16;;;;;;;5.07;1.33;;;7.90;99.90;;;;;;5038464;28;20056;-86
2022/04/09 08:09:44;;;;;;;5.27;1.40;;;8.10;99.90;;;;;;5040473;28;20504;-85
2022/04/09 08:12:12;;;;;;;7.77;1.50;;;8.20;99.90;;;;;;5024590;28;20079;-86
2022/04/09 08:14:44;;;;;;;9.73;1.57;;;8.20;99.90;;;;;;5023133;28;20051;-85
2022/04/09 08:17:11;;;;;;;5.03;1.50;;;8.10;99.90;;;;;;5038437;28;20041;-85
2022/04/09 08:19:37;;;;;;;6.77;1.40;;;8.00;99.90;;;;;;5023567;28;20051;-85
2022/04/09 08:22:03;;;;;;;3.70;1.43;;;7.90;99.90;;;;;;5023534;28;20546;-85
2022/04/09 08:24:29;;;;;;;4.90;1.43;;;7.80;99.90;;;;;;5022623;28;20075;-86
2022/04/09 08:26:55;;;;;;;9.30;1.90;;;7.80;99.90;;;;;;5039465;28;20084;-86
2022/04/09 08:29:21;;;;;;;5.20;1.40;;;8.00;99.90;;;;;;5069965;28;20040;-86
2022/04/09 08:31:47;;;;;;;6.87;1.30;;;8.10;99.90;;;;;;5023886;28;20032;-87
2022/04/09 08:34:20;;;;;;;3.50;1.40;;;8.20;99.90;;;;;;5057319;28;20044;-87
2022/04/09 08:36:46;;;;;;;8.07;1.40;;;8.30;99.90;;;;;;5036624;28;20052;-86
2022/04/09 08:39:12;;;;;;;10.03;1.63;;;8.30;99.90;;;;;;5024944;28;20102;-85
2022/04/09 08:41:42;;;;;;;7.90;1.83;;;8.30;99.90;;;;;;5038619;28;20501;-89
2022/04/09 08:44:08;;;;;;;8.73;1.50;;;8.20;99.90;;;;;;5039446;28;20091;-83
2022/04/09 08:46:35;;;;;;;3.90;1.43;;;8.40;99.90;;;;;;5003841;28;20052;-87
2022/04/09 08:49:05;;;;;;;7.07;1.50;;;8.50;99.90;;;;;;5051999;28;20056;-85
2022/04/09 08:51:31;;;;;;;8.73;1.47;;;8.70;99.90;;;;;;5027099;28;20374;-84
2022/04/09 08:53:59;;;;;;;6.73;1.47;;;8.90;99.90;;;;;;5050224;28;20045;-84
2022/04/09 08:56:25;;;;;;;7.93;1.50;;;9.00;99.90;;;;;;5037567;28;20049;-84
2022/04/09 08:58:50;;;;;;;5.33;1.83;;;9.10;99.90;;;;;;4995882;28;20048;-84
2022/04/09 09:01:16;;;;;;;4.00;1.20;;;9.00;99.90;;;;;;5021159;28;20120;-82
2022/04/09 09:03:42;;;;;;;8.53;2.33;;;9.10;99.90;;;;;;5020820;28;20044;-82
2022/04/09 09:06:31;;;;;;;7.90;1.57;;;9.10;99.90;;;;;;5021243;28;20103;-81
2022/04/09 09:08:59;;;;;;;5.20;1.60;;;8.80;99.90;;;;;;5054620;28;20069;-79
2022/04/09 09:11:29;;;;;;;6.20;1.77;;;8.40;99.90;;;;;;5032645;28;20057;-82
2022/04/09 09:14:00;;;;;;;7.80;1.93;;;8.10;99.90;;;;;;5036442;28;20037;-80
2022/04/09 09:16:31;;;;;;;6.70;1.63;;;8.00;99.90;;;;;;5034516;28;20050;-81
2022/04/09 09:18:59;;;;;;;10.50;2.17;;;8.00;99.90;;;;;;5037600;28;20041;-82
2022/04/09 09:21:28;;;;;;;7.40;1.50;;;8.20;99.90;;;;;;5033553;28;20338;-82
2022/04/09 09:24:16;;;;;;;5.60;1.40;;;8.50;99.90;;;;;;5034576;28;20041;-82
2022/04/09 09:26:43;;;;;;;5.93;2.07;;;8.90;99.90;;;;;;5037461;28;20136;-82
2022/04/09 09:29:12;;;;;;;6.03;1.43;;;9.10;99.90;;;;;;5035577;28;20072;-82
2022/04/09 09:31:47;;;;;;;7.83;1.77;;;9.30;99.90;;;;;;5051502;28;20069;-82
2022/04/09 09:34:15;;;;;;;9.43;1.83;;;9.60;99.90;;;;;;5029676;28;20053;-82
2022/04/09 09:36:43;;;;;;;6.90;1.30;;;9.60;99.90;;;;;;5021191;28;20045;-82
2022/04/09 09:39:14;;;;;;;9.43;1.70;;;9.50;99.90;;;;;;5021644;28;20045;-82
2022/04/09 09:42:06;;;;;;;7.97;1.40;;;9.30;99.90;;;;;;5048139;28;20083;-81
2022/04/09 09:44:41;;;;;;;7.85;1.75;;;9.20;99.90;;;;;;5019180;28;20056;-81
2022/04/09 09:47:08;;;;;;;8.67;1.37;;;9.00;99.90;;;;;;5029830;28;20049;-81
2022/04/09 09:49:58;;;;;;;7.93;1.50;;;8.60;99.90;;;;;;5034872;28;20055;-81
2022/04/09 09:52:32;;;;;;;3.60;1.03;;;8.10;99.90;;;;;;5035299;28;20057;-82
2022/04/09 09:55:05;;;;;;;3.77;0.93;;;7.30;99.90;;;;;;5034581;28;20670;-80
2022/04/09 09:57:32;;;;;;;4.87;1.40;;;6.70;99.90;;;;;;5052045;28;20072;-78
2022/04/09 10:00:05;;;;;;;7.40;1.57;;;6.40;99.90;;;;;;5021906;28;20293;-83
2022/04/09 10:02:31;;;;;;;3.93;1.40;;;6.30;99.90;;;;;;5053275;28;20049;-78
2022/04/09 10:04:57;;;;;;;5.43;1.13;;;6.40;99.90;;;;;;5021969;28;20045;-81
2022/04/09 10:07:24;;;;;;;5.43;1.50;;;6.40;99.90;;;;;;5039175;28;20048;-83
2022/04/09 10:09:50;;;;;;;3.97;1.20;;;6.50;99.90;;;;;;5057788;28;20075;-81
2022/04/09 10:12:24;;;;;;;8.73;2.33;;;6.70;99.90;;;;;;5038462;28;20110;-81
2022/04/09 10:14:54;;;;;;;9.23;1.77;;;6.80;99.90;;;;;;5044000;28;20045;-82
2022/04/09 10:17:21;;;;;;;6.80;1.50;;;7.00;99.90;;;;;;5039339;28;20040;-81
2022/04/09 10:20:01;;;;;;;6.73;1.73;;;7.10;99.90;;;;;;5021365;28;20044;-82
2022/04/09 10:22:42;;;;;;;6.13;1.50;;;7.20;99.90;;;;;;5034516;28;20404;-82
2022/04/09 10:25:08;;;;;;;10.83;1.83;;;7.30;99.90;;;;;;5039658;28;20068;-82
2022/04/09 10:27:38;;;;;;;11.23;1.80;;;7.60;99.90;;;;;;5024076;28;20045;-83
2022/04/09 10:30:24;;;;;;;7.13;1.60;;;7.90;99.90;;;;;;5055146;28;21939;-83
2022/04/09 10:32:59;;;;;;;6.53;1.77;;;7.80;99.90;;;;;;5037650;28;20056;-82
2022/04/09 10:35:39;;;;;;;6.47;1.50;;;7.40;99.90;;;;;;5055917;28;20151;-86
2022/04/09 10:38:12;;;;;;;9.50;1.57;;;6.90;99.90;;;;;;5018866;28;20056;-81
2022/04/09 10:40:50;;;;;;;5.10;1.50;;;6.70;99.90;;;;;;5053013;28;20473;-82
2022/04/09 10:43:21;;;;;;;5.83;1.20;;;6.70;99.90;;;;;;5055137;28;20705;-82
2022/04/09 10:46:04;;;;;;;7.60;1.83;;;7.00;99.90;;;;;;5053142;28;20049;-82
2022/04/09 10:48:34;;;;;;;8.33;1.20;;;7.20;99.90;;;;;;5036629;28;20106;-83
2022/04/09 10:51:08;;;;;;;4.87;1.23;;;7.40;99.90;;;;;;5038281;28;20037;-82
2022/04/09 10:53:41;;;;;;;2.67;1.03;;;7.80;99.90;;;;;;5057932;28;20053;-75
2022/04/09 10:56:30;;;;;;;7.40;1.10;;;8.00;99.90;;;;;;5036695;28;20045;-78
2022/04/09 10:59:16;;;;;;;4.20;0.90;;;8.20;99.90;;;;;;5068976;28;20198;-83
2022/04/09 11:01:48;;;;;;;3.47;1.10;;;8.30;99.90;;;;;;5037065;28;20040;-83
2022/04/09 11:04:36;;;;;;;3.92;1.75;;;8.40;99.90;;;;;;5061426;28;21921;-82
2022/04/09 11:07:15;;;;;;;2.10;0.80;;;8.60;99.90;;;;;;5028407;28;20048;-84
2022/04/09 11:09:55;;;;;;;4.57;0.90;;;8.90;99.90;;;;;;5032908;28;20037;-85
2022/04/09 11:12:24;;;;;;;5.37;1.30;;;9.20;99.90;;;;;;5049432;28;20071;-82
2022/04/09 11:14:57;;;;;;;3.60;1.23;;;9.40;99.90;;;;;;5061485;28;20120;-83
2022/04/09 11:17:31;;;;;;;4.80;1.00;;;9.10;99.90;;;;;;5055547;28;20065;-82
2022/04/09 11:20:10;;;;;;;7.87;1.03;;;9.00;99.90;;;;;;5035093;28;20076;-83
2022/04/09 11:22:45;;;;;;;4.73;1.00;;;8.80;99.90;;;;;;5039929;28;20057;-84
2022/04/09 11:25:23;;;;;;;2.87;1.00;;;8.80;99.90;;;;;;5055790;28;20041;-85
2022/04/09 11:27:51;;;;;;;5.50;1.03;;;8.90;99.90;;;;;;5055048;28;20511;-84
2022/04/09 11:30:17;;;;;;;5.10;1.00;;;9.20;99.90;;;;;;5022165;28;20381;-84
2022/04/09 11:32:46;;;;;;;5.33;1.20;;;9.50;99.90;;;;;;5038253;28;20056;-85
2022/04/09 11:35:12;;;;;;;4.87;0.80;;;9.70;99.90;;;;;;5039866;28;20087;-84
2022/04/09 11:37:47;;;;;;;3.03;1.00;;;9.80;99.90;;;;;;5030515;28;20034;-78
2022/04/09 11:40:14;;;;;;;3.43;1.00;;;9.80;99.90;;;;;;5054610;28;20045;-83
2022/04/09 11:42:49;;;;;;;4.13;1.13;;;9.70;99.90;;;;;;5042427;28;20124;-89
2022/04/09 11:45:18;;;;;;;7.63;1.33;;;9.50;99.90;;;;;;5055950;28;20048;-87
2022/04/09 11:47:44;;;;;;;5.50;1.30;;;9.00;99.90;;;;;;5039898;28;20672;-81
2022/04/09 11:50:14;;;;;;;4.17;1.00;;;8.40;99.90;;;;;;5038695;28;20088;-81
2022/04/09 11:52:40;;;;;;;6.40;1.17;;;8.10;99.90;;;;;;5018771;28;20495;-81
2022/04/09 11:55:10;;;;;;;4.00;1.10;;;7.80;99.90;;;;;;5039497;28;20095;-81
2022/04/09 11:57:37;;;;;;;5.60;1.13;;;7.60;99.90;;;;;;5025003;28;20048;-82
2022/04/09 12:00:06;;;;;;;5.63;1.00;;;7.70;99.90;;;;;;5052629;28;20386;-82
2022/04/09 12:02:32;;;;;;;8.67;1.20;;;8.00;99.90;;;;;;5037539;28;20139;-81
2022/04/09 12:04:59;;;;;;;4.27;1.67;;;8.50;99.90;;;;;;5018916;28;20512;-82
2022/04/09 12:07:28;;;;;;;5.40;1.60;;;8.90;99.90;;;;;;5042319;28;20059;-82
2022/04/09 12:09:55;;;;;;;5.83;1.70;;;9.30;99.90;;;;;;5028592;28;20060;-82
2022/04/09 12:12:22;;;;;;;5.00;1.17;;;9.40;99.90;;;;;;5073260;28;20076;-81
2022/04/09 12:14:56;;;;;;;4.37;1.30;;;9.40;99.90;;;;;;5049206;28;20056;-81
2022/04/09 12:17:31;;;;;;;9.17;1.50;;;9.40;99.90;;;;;;5016420;28;20045;-84
2022/04/09 12:19:57;;;;;;;2.90;1.00;;;9.30;99.90;;;;;;5056931;28;20047;-85
2022/04/09 12:22:24;;;;;;;4.00;1.00;;;9.20;99.90;;;;;;5051301;28;20045;-81
2022/04/09 12:24:54;;;;;;;6.23;1.50;;;9.20;99.90;;;;;;5037814;28;20052;-81
2022/04/09 12:27:40;;;;;;;4.70;1.23;;;9.30;99.90;;;;;;5056879;28;20033;-81
2022/04/09 12:30:06;;;;;;;5.60;1.50;;;9.50;99.90;;;;;;5037914;28;20048;-81
2022/04/09 12:32:33;;;;;;;7.83;1.30;;;9.80;99.90;;;;;;5029410;28;20041;-81
2022/04/09 12:35:06;;;;;;;5.30;1.23;;;9.80;99.90;;;;;;5040259;28;20040;-81
2022/04/09 12:37:43;;;;;;;2.43;1.00;;;9.60;99.90;;;;;;5044645;28;20046;-81
2022/04/09 12:40:17;;;;;;;2.60;0.93;;;8.90;99.90;;;;;;5021430;28;20424;-80
2022/04/09 12:42:43;;;;;;;2.27;0.60;;;8.10;99.90;;;;;;5053383;28;20549;-80
2022/04/09 12:45:15;;;;;;;2.13;0.60;;;7.50;99.90;;;;;;5016179;28;20082;-80
2022/04/09 12:47:41;;;;;;;3.42;1.08;;;7.20;99.90;;;;;;5040929;28;20059;-80
2022/04/09 12:50:19;;;;;;;1.83;0.70;;;7.20;99.90;;;;;;5022109;28;20507;-78
2022/04/09 12:52:45;;;;;;;6.27;1.23;;;7.40;99.90;;;;;;5036567;28;20084;-80
2022/04/09 12:55:15;;;;;;;2.40;0.70;;;7.70;99.90;;;;;;5023668;28;20113;-79
2022/04/09 12:57:40;;;;;;;2.80;0.80;;;8.00;99.90;;;;;;5036108;28;20041;-80
2022/04/09 13:00:09;;;;;;;4.93;0.93;;;8.30;99.90;;;;;;5028953;28;20056;-80
2022/04/09 13:02:36;;;;;;;3.03;1.20;;;8.70;99.90;;;;;;5024110;28;20045;-80